Air Navigation Services of Czech Republic
Airport: LKTB Updated:  15.09.2019 22:30:25  UTC
 METAR LKTB 15.09. 22:30 ...
METAR LKTB 152230Z 35002KT CAVOK 14/11 Q1020 NOSIG RMK REG QNH 1018=
 TAF LKTB 15.09. 17:00 ...
TAF LKTB 151700Z 1518/1700 18006KT CAVOK      BECMG 1518/1520 VRB02KT      TEMPO 1602/1606 4000 BR NSC      PROB30 TEMPO 1603/1606 2000 BR SCT002      BECMG 1606/1608 03008KT      BECMG 1612/1614 9999 SCT045      BECMG 1616/1618 9999 BKN040      PROB30 TEMPO 1620/1700 -RA=